Time;durP1;ratioP1;P1;durP2;ratioP2;P2;SDS_P1;SDS_P2;PMS_P1;PMS_P2;Temp;Humidity;BMP_temperature;BMP_pressure;BME280_temperature;BME280_humidity;BME280_pressure;Samples;Min_cycle;Max_cycle;Signal;HPM_P1;HPM_P2
2020/12/29 00:00:58;;;;;;;2.42;2.20;;;2.90;99.90;;;;;;5031254;28;20367;-79
2020/12/29 00:03:23;;;;;;;1.90;1.42;;;2.80;99.90;;;;;;5007669;28;20148;-78
2020/12/29 00:05:50;;;;;;;2.87;1.90;;;2.90;99.90;;;;;;5011210;28;20125;-79
2020/12/29 00:08:16;;;;;;;2.60;1.35;;;2.90;99.90;;;;;;5028228;28;20021;-78
2020/12/29 00:10:42;;;;;;;3.43;2.33;;;2.90;99.90;;;;;;5030129;28;20045;-77
2020/12/29 00:13:09;;;;;;;1.33;1.25;;;2.90;99.90;;;;;;5019951;28;20136;-78
2020/12/29 00:15:44;;;;;;;1.48;1.38;;;2.90;99.90;;;;;;5009389;28;20656;-78
2020/12/29 00:18:10;;;;;;;2.33;1.50;;;2.90;99.90;;;;;;5019649;28;20045;-79
2020/12/29 00:20:35;;;;;;;2.55;1.02;;;2.90;99.90;;;;;;5014991;28;20022;-79
2020/12/29 00:23:01;;;;;;;1.53;0.77;;;3.00;99.90;;;;;;5012554;28;20022;-80
2020/12/29 00:25:27;;;;;;;3.28;2.38;;;3.00;99.90;;;;;;5014929;28;20026;-78
2020/12/29 00:27:53;;;;;;;3.40;1.25;;;3.00;99.90;;;;;;5014812;28;20105;-78
2020/12/29 00:30:18;;;;;;;4.17;2.30;;;3.00;99.90;;;;;;5014180;28;20484;-78
2020/12/29 00:32:44;;;;;;;4.77;1.30;;;3.00;99.90;;;;;;5008457;28;20088;-79
2020/12/29 00:35:10;;;;;;;2.20;1.57;;;3.00;99.90;;;;;;5003604;28;20057;-79
2020/12/29 00:37:36;;;;;;;5.60;1.67;;;3.10;99.90;;;;;;5016275;28;20092;-78
2020/12/29 00:40:03;;;;;;;2.83;2.60;;;3.10;99.90;;;;;;5030782;28;20022;-78
2020/12/29 00:42:33;;;;;;;2.10;1.63;;;3.00;99.90;;;;;;5009678;28;20053;-78
2020/12/29 00:44:58;;;;;;;3.85;2.85;;;3.00;99.90;;;;;;5010665;28;20104;-79
2020/12/29 00:47:24;;;;;;;5.43;1.92;;;3.00;99.90;;;;;;5027646;28;20180;-79
2020/12/29 00:49:50;;;;;;;6.03;2.80;;;3.00;99.90;;;;;;5024837;28;20017;-78
2020/12/29 00:52:17;;;;;;;3.00;2.33;;;3.00;99.90;;;;;;5003230;28;20027;-78
2020/12/29 00:54:42;;;;;;;1.85;1.73;;;3.10;99.90;;;;;;5013316;28;20029;-78
2020/12/29 00:57:08;;;;;;;3.83;2.63;;;3.10;99.90;;;;;;5009063;28;20091;-78
2020/12/29 00:59:34;;;;;;;1.63;1.23;;;3.10;99.90;;;;;;5013643;28;20028;-78
2020/12/29 01:01:59;;;;;;;2.73;1.70;;;3.10;99.90;;;;;;5029491;28;20052;-79
2020/12/29 01:04:25;;;;;;;2.50;2.03;;;3.10;99.90;;;;;;4966988;28;20874;-78
2020/12/29 01:06:52;;;;;;;8.87;2.20;;;3.10;99.90;;;;;;5023785;28;20372;-79
2020/12/29 01:09:18;;;;;;;1.85;1.73;;;3.20;99.90;;;;;;5025930;28;20802;-79
2020/12/29 01:11:44;;;;;;;2.03;1.87;;;3.20;99.90;;;;;;5008674;28;20611;-79
2020/12/29 01:14:10;;;;;;;2.97;2.20;;;3.20;99.90;;;;;;5002927;28;20041;-79
2020/12/29 01:16:36;;;;;;;11.13;2.80;;;3.20;99.90;;;;;;5024118;28;20065;-79
2020/12/29 01:19:02;;;;;;;3.40;2.00;;;3.20;99.90;;;;;;5011688;28;20263;-79
2020/12/29 01:21:28;;;;;;;2.80;2.57;;;3.20;99.90;;;;;;5012696;28;20034;-79
2020/12/29 01:23:54;;;;;;;5.00;2.43;;;3.20;99.90;;;;;;5029624;28;20034;-79
2020/12/29 01:26:26;;;;;;;3.55;3.30;;;3.20;99.90;;;;;;5018937;28;20054;-79
2020/12/29 01:28:52;;;;;;;6.63;2.53;;;3.20;99.90;;;;;;4998271;28;20030;-80
2020/12/29 01:31:29;;;;;;;2.72;2.10;;;3.20;99.90;;;;;;5017072;28;20035;-79
2020/12/29 01:33:55;;;;;;;2.38;2.17;;;3.20;99.90;;;;;;5029222;28;20038;-79
2020/12/29 01:36:22;;;;;;;3.35;3.08;;;3.20;99.90;;;;;;5026808;28;20022;-80
2020/12/29 01:38:48;;;;;;;2.28;2.08;;;3.20;99.90;;;;;;5023746;28;20041;-79
2020/12/29 01:41:14;;;;;;;2.33;2.13;;;3.20;99.90;;;;;;5011651;28;20411;-79
2020/12/29 01:43:40;;;;;;;3.72;2.28;;;3.20;99.90;;;;;;5044874;28;20029;-78
2020/12/29 01:46:05;;;;;;;3.43;3.20;;;3.20;99.90;;;;;;5026598;28;20045;-79
2020/12/29 01:48:31;;;;;;;2.20;2.10;;;3.20;99.90;;;;;;5016083;28;20428;-79
2020/12/29 01:50:57;;;;;;;2.50;2.30;;;3.20;99.90;;;;;;5028675;28;20484;-80
2020/12/29 01:53:23;;;;;;;4.37;3.23;;;3.20;99.90;;;;;;5043927;28;20034;-79
2020/12/29 01:55:50;;;;;;;17.57;4.23;;;3.30;99.90;;;;;;5038989;28;20056;-80
2020/12/29 01:58:16;;;;;;;1.85;1.70;;;3.20;99.90;;;;;;5029500;28;20060;-79
2020/12/29 02:00:42;;;;;;;3.22;2.88;;;3.30;99.90;;;;;;5029699;28;20029;-79
2020/12/29 02:03:15;;;;;;;2.57;2.27;;;3.30;99.90;;;;;;5029065;28;20143;-80
2020/12/29 02:05:45;;;;;;;8.85;3.20;;;3.20;99.90;;;;;;5031295;28;20022;-79
2020/12/29 02:08:12;;;;;;;7.57;2.90;;;3.30;99.90;;;;;;5030449;28;20408;-79
2020/12/29 02:10:38;;;;;;;;;;;3.30;99.90;;;;;;5021225;28;20028;-79
2020/12/29 02:13:04;;;;;;;3.47;2.33;;;3.30;99.90;;;;;;5029185;28;19970;-80
2020/12/29 02:15:30;;;;;;;5.50;2.60;;;3.30;99.90;;;;;;5033283;28;20109;-79
2020/12/29 02:17:55;;;;;;;4.53;1.60;;;3.20;99.90;;;;;;5030682;28;20037;-80
2020/12/29 02:20:21;;;;;;;3.27;1.73;;;3.30;99.90;;;;;;5029486;28;20476;-80
2020/12/29 02:22:47;;;;;;;4.40;3.10;;;3.30;99.90;;;;;;5024228;28;20105;-79
2020/12/29 02:25:12;;;;;;;3.50;2.60;;;3.30;99.90;;;;;;5013796;28;20024;-79
2020/12/29 02:27:47;;;;;;;2.22;1.60;;;3.30;99.90;;;;;;5016134;28;20030;-78
2020/12/29 02:30:13;;;;;;;2.13;1.98;;;3.30;99.90;;;;;;5023918;28;20333;-78
2020/12/29 02:32:39;;;;;;;1.95;1.85;;;3.30;99.90;;;;;;5017440;28;20031;-79
2020/12/29 02:35:08;;;;;;;2.35;1.65;;;3.30;99.90;;;;;;5027608;28;20032;-79
2020/12/29 02:37:34;;;;;;;4.07;2.60;;;3.40;99.90;;;;;;5016369;28;20052;-78
2020/12/29 02:39:59;;;;;;;3.08;2.80;;;3.40;99.90;;;;;;5015206;28;20034;-77
2020/12/29 02:42:25;;;;;;;4.00;2.37;;;3.40;99.90;;;;;;5028346;28;20026;-78
2020/12/29 02:44:51;;;;;;;5.00;2.53;;;3.40;99.90;;;;;;5023352;28;20499;-78
2020/12/29 02:47:17;;;;;;;2.60;1.93;;;3.40;99.90;;;;;;5014179;28;20037;-78
2020/12/29 02:49:42;;;;;;;4.57;3.63;;;3.40;99.90;;;;;;5016590;28;20025;-78
2020/12/29 02:52:11;;;;;;;2.25;1.75;;;3.50;99.90;;;;;;5015184;28;20122;-78
2020/12/29 02:54:37;;;;;;;3.75;2.58;;;3.50;99.90;;;;;;5002620;28;20101;-79
2020/12/29 02:57:03;;;;;;;2.50;2.35;;;3.50;99.90;;;;;;5009688;28;20149;-78
2020/12/29 02:59:30;;;;;;;3.33;2.37;;;3.40;99.90;;;;;;5026522;28;20431;-78
2020/12/29 03:01:56;;;;;;;3.40;2.47;;;3.40;99.90;;;;;;5039251;28;20034;-78
2020/12/29 03:04:22;;;;;;;6.65;2.47;;;3.40;99.90;;;;;;4999394;28;20049;-77
2020/12/29 03:06:48;;;;;;;3.47;2.72;;;3.40;99.90;;;;;;4985917;28;20045;-78
2020/12/29 03:09:17;;;;;;;6.20;3.55;;;3.40;99.90;;;;;;5024427;28;20049;-78
2020/12/29 03:11:45;;;;;;;4.50;2.92;;;3.40;99.90;;;;;;5009086;28;20042;-78
2020/12/29 03:14:11;;;;;;;2.28;2.15;;;3.40;99.90;;;;;;5018112;28;20036;-78
2020/12/29 03:16:37;;;;;;;4.40;2.70;;;3.40;99.90;;;;;;5012181;28;20038;-78
2020/12/29 03:19:03;;;;;;;4.88;2.58;;;3.40;99.90;;;;;;5026980;28;20444;-79
2020/12/29 03:21:29;;;;;;;2.83;1.93;;;3.50;99.90;;;;;;5013063;28;20046;-78
2020/12/29 03:23:55;;;;;;;6.97;3.30;;;3.60;99.90;;;;;;5014370;28;20034;-79
2020/12/29 03:26:22;;;;;;;6.80;3.37;;;3.50;99.90;;;;;;5009635;28;20033;-79
2020/12/29 03:28:48;;;;;;;3.28;2.95;;;3.50;99.90;;;;;;5029569;28;20116;-78
2020/12/29 03:31:15;;;;;;;3.43;1.90;;;3.50;99.90;;;;;;5031188;28;20076;-78
2020/12/29 03:33:41;;;;;;;2.45;1.73;;;3.40;99.90;;;;;;5029209;28;20285;-78
2020/12/29 03:36:07;;;;;;;3.33;3.08;;;3.40;99.90;;;;;;5015043;28;20034;-78
2020/12/29 03:38:33;;;;;;;5.57;3.27;;;3.30;99.90;;;;;;5014966;28;20099;-78
2020/12/29 03:40:59;;;;;;;3.10;2.80;;;3.30;99.90;;;;;;5015940;28;20477;-78
2020/12/29 03:43:24;;;;;;;3.40;3.00;;;3.30;99.90;;;;;;5018098;28;20425;-77
2020/12/29 03:45:51;;;;;;;5.20;3.17;;;3.30;99.90;;;;;;5014486;28;20109;-78
2020/12/29 03:48:22;;;;;;;3.83;2.67;;;3.30;99.90;;;;;;5011805;28;20491;-78
2020/12/29 03:50:48;;;;;;;3.38;3.08;;;3.40;99.90;;;;;;5024584;28;20033;-78
2020/12/29 03:53:14;;;;;;;2.28;1.95;;;3.40;99.90;;;;;;5009880;28;20113;-78
2020/12/29 03:55:40;;;;;;;1.37;1.13;;;3.40;99.90;;;;;;5014935;28;20117;-77
2020/12/29 03:58:07;;;;;;;5.47;2.80;;;3.50;99.90;;;;;;5006141;28;20022;-78
2020/12/29 04:00:34;;;;;;;7.28;3.78;;;3.50;99.90;;;;;;5025066;28;20029;-79
2020/12/29 04:03:00;;;;;;;3.67;2.30;;;3.40;99.90;;;;;;5014800;28;20072;-78
2020/12/29 04:05:26;;;;;;;6.10;2.42;;;3.40;99.90;;;;;;5013747;28;20425;-79
2020/12/29 04:07:52;;;;;;;2.13;2.03;;;3.40;99.90;;;;;;5003768;28;20412;-78
2020/12/29 04:10:18;;;;;;;3.85;2.80;;;3.30;99.90;;;;;;5025655;28;20091;-78
2020/12/29 04:12:44;;;;;;;2.85;2.65;;;3.40;99.90;;;;;;5028140;28;20038;-78
2020/12/29 04:15:10;;;;;;;6.25;3.47;;;3.40;99.90;;;;;;5024135;28;20429;-77
2020/12/29 04:17:38;;;;;;;4.28;2.13;;;3.40;99.90;;;;;;5027935;28;20060;-78
2020/12/29 04:20:06;;;;;;;15.35;3.20;;;3.40;99.90;;;;;;5028296;28;20104;-79
2020/12/29 04:22:32;;;;;;;3.05;2.80;;;3.40;99.90;;;;;;5015142;28;20037;-78
2020/12/29 04:24:58;;;;;;;2.10;1.90;;;3.40;99.90;;;;;;5016904;28;20044;-78
2020/12/29 04:27:24;;;;;;;2.60;2.00;;;3.40;99.90;;;;;;5012384;28;20046;-78
2020/12/29 04:29:50;;;;;;;4.90;2.30;;;3.40;99.90;;;;;;5010028;28;20325;-79
2020/12/29 04:32:16;;;;;;;2.63;2.47;;;3.40;99.90;;;;;;5030501;28;20076;-79
2020/12/29 04:34:44;;;;;;;1.02;1.00;;;3.40;99.90;;;;;;5029863;28;20083;-79
2020/12/29 04:37:09;;;;;;;13.50;5.03;;;3.40;99.90;;;;;;5009584;28;20029;-80
2020/12/29 04:39:35;;;;;;;2.58;2.30;;;3.40;99.90;;;;;;5012868;28;20050;-79
2020/12/29 04:42:09;;;;;;;3.08;2.72;;;3.40;99.90;;;;;;5028651;28;20029;-79
2020/12/29 04:44:36;;;;;;;2.75;2.03;;;3.40;99.90;;;;;;5036662;28;20021;-79
2020/12/29 04:47:02;;;;;;;12.52;3.22;;;3.50;99.90;;;;;;5013655;28;20033;-79
2020/12/29 04:49:29;;;;;;;4.03;3.63;;;3.40;99.90;;;;;;5011751;28;20429;-79
2020/12/29 04:51:56;;;;;;;;;;;3.50;99.90;;;;;;5010916;28;20282;-79
2020/12/29 04:54:24;;;;;;;2.80;2.60;;;3.40;99.90;;;;;;5014798;28;19912;-79
2020/12/29 04:56:57;;;;;;;4.97;2.03;;;3.50;99.90;;;;;;5018012;28;20412;-79
2020/12/29 04:59:23;;;;;;;3.58;3.15;;;3.50;99.90;;;;;;5020877;28;20017;-79
2020/12/29 05:01:49;;;;;;;2.20;2.03;;;3.50;99.90;;;;;;5028944;28;20080;-79
2020/12/29 05:04:16;;;;;;;6.18;2.40;;;3.50;99.90;;;;;;5012700;28;20026;-79
2020/12/29 05:06:42;;;;;;;3.55;3.03;;;3.50;99.90;;;;;;4991975;28;20037;-79
2020/12/29 05:09:10;;;;;;;3.10;2.05;;;3.50;99.90;;;;;;5043465;28;20036;-80
2020/12/29 05:11:36;;;;;;;;;;;3.50;99.90;;;;;;5036033;28;20036;-79
2020/12/29 05:14:06;;;;;;;4.30;3.90;;;3.50;99.90;;;;;;5029264;28;19909;-80
2020/12/29 05:16:39;;;;;;;1.77;1.67;;;3.40;99.90;;;;;;5018738;28;20450;-79
2020/12/29 05:19:09;;;;;;;3.85;2.60;;;3.50;99.90;;;;;;5026875;28;20025;-79
2020/12/29 05:21:38;;;;;;;7.20;3.35;;;3.50;99.90;;;;;;5023578;28;20025;-79
2020/12/29 05:24:18;;;;;;;1.23;1.13;;;3.50;99.90;;;;;;5044789;28;20083;-80
2020/12/29 05:26:47;;;;;;;2.33;2.13;;;3.50;99.90;;;;;;5033987;28;20042;-79
2020/12/29 05:29:13;;;;;;;3.45;2.50;;;3.50;99.90;;;;;;5028706;28;20034;-80
2020/12/29 05:31:41;;;;;;;8.52;4.15;;;3.50;99.90;;;;;;5020503;28;20168;-79
2020/12/29 05:34:07;;;;;;;2.90;2.55;;;3.50;99.90;;;;;;5037734;28;20436;-79
2020/12/29 05:36:37;;;;;;;3.60;2.85;;;3.50;99.90;;;;;;5013412;28;20034;-79
2020/12/29 05:39:09;;;;;;;3.83;3.05;;;3.50;99.90;;;;;;5042623;28;20337;-79
2020/12/29 05:41:45;;;;;;;7.43;3.28;;;3.50;99.90;;;;;;5024287;28;20421;-78
2020/12/29 05:44:23;;;;;;;;;;;3.50;99.90;;;;;;5029846;28;20403;-80
2020/12/29 05:46:49;;;;;;;6.38;2.97;;;3.50;99.90;;;;;;5029765;28;20349;-79
2020/12/29 05:49:18;;;;;;;3.03;2.70;;;3.50;99.90;;;;;;5033740;28;20103;-79
2020/12/29 05:51:47;;;;;;;5.65;2.58;;;3.50;99.90;;;;;;5011567;28;20066;-78
2020/12/29 05:54:15;;;;;;;3.28;2.80;;;3.50;99.90;;;;;;5012613;28;20018;-78
2020/12/29 05:56:41;;;;;;;7.30;2.72;;;3.50;99.90;;;;;;5012945;28;20165;-78
2020/12/29 05:59:08;;;;;;;8.23;3.40;;;3.50;99.90;;;;;;5029260;28;20021;-79
2020/12/29 06:01:53;;;;;;;5.43;2.43;;;3.60;99.90;;;;;;5008195;28;20114;-79
2020/12/29 06:04:20;;;;;;;3.38;2.70;;;3.60;99.90;;;;;;5007383;28;20263;-79
2020/12/29 06:06:47;;;;;;;;;;;3.60;99.90;;;;;;5023754;28;20038;-79
2020/12/29 06:09:17;;;;;;;5.30;2.83;;;3.60;99.90;;;;;;5010976;28;19909;-79
2020/12/29 06:11:49;;;;;;;5.03;2.30;;;3.60;99.90;;;;;;5008567;28;20026;-78
2020/12/29 06:14:17;;;;;;;3.08;2.10;;;3.60;99.90;;;;;;5013234;28;20036;-78
2020/12/29 06:16:45;;;;;;;6.68;3.00;;;3.60;99.90;;;;;;5008361;28;20421;-77
2020/12/29 06:19:29;;;;;;;7.20;2.97;;;3.60;99.90;;;;;;5022006;28;20026;-79
2020/12/29 06:21:58;;;;;;;3.83;2.45;;;3.60;99.90;;;;;;5001286;28;20425;-78
2020/12/29 06:24:27;;;;;;;5.82;3.60;;;3.60;99.90;;;;;;5012371;28;20075;-78
2020/12/29 06:26:53;;;;;;;10.57;4.22;;;3.60;99.90;;;;;;5011407;28;20022;-77
2020/12/29 06:29:22;;;;;;;7.88;2.60;;;3.60;99.90;;;;;;5022477;28;20392;-77
2020/12/29 06:31:51;;;;;;;5.45;4.88;;;3.60;99.90;;;;;;5007795;28;20026;-78
2020/12/29 06:34:18;;;;;;;6.88;5.30;;;3.60;99.90;;;;;;5010098;28;20026;-79
2020/12/29 06:36:47;;;;;;;4.53;4.18;;;3.60;99.90;;;;;;5022693;28;20033;-78
2020/12/29 06:39:14;;;;;;;6.38;4.15;;;3.50;99.90;;;;;;5016227;28;20126;-79
2020/12/29 06:41:41;;;;;;;3.38;2.42;;;3.50;99.90;;;;;;5026746;28;20047;-78
2020/12/29 06:44:13;;;;;;;4.55;3.53;;;3.50;99.90;;;;;;5015431;28;20038;-79
2020/12/29 06:46:39;;;;;;;2.67;2.17;;;3.50;99.90;;;;;;5006485;28;20038;-79
2020/12/29 06:49:19;;;;;;;4.22;3.40;;;3.50;99.90;;;;;;5028475;28;20026;-79
2020/12/29 06:51:46;;;;;;;3.03;2.22;;;3.50;99.90;;;;;;5019487;28;20026;-78
2020/12/29 06:54:15;;;;;;;1.20;1.08;;;3.50;99.90;;;;;;5019637;28;20032;-79
2020/12/29 06:57:00;;;;;;;8.48;3.88;;;3.50;99.90;;;;;;5005086;28;20030;-78
2020/12/29 06:59:37;;;;;;;4.95;3.92;;;3.50;99.90;;;;;;5004259;28;20097;-78
2020/12/29 07:02:03;;;;;;;2.10;1.75;;;3.40;99.90;;;;;;5029137;28;20076;-79
2020/12/29 07:04:29;;;;;;;2.08;1.88;;;3.40;99.90;;;;;;5008683;28;20022;-79
2020/12/29 07:06:54;;;;;;;1.38;1.15;;;3.40;99.90;;;;;;4957684;28;20345;-79
2020/12/29 07:09:23;;;;;;;1.83;1.65;;;3.40;99.90;;;;;;5025894;28;20018;-79
2020/12/29 07:12:10;;;;;;;1.90;1.77;;;3.50;99.90;;;;;;5032200;28;20030;-79
2020/12/29 07:14:36;;;;;;;4.00;1.80;;;3.50;99.90;;;;;;5012920;28;20060;-78
2020/12/29 07:17:06;;;;;;;2.40;1.63;;;3.50;99.90;;;;;;5007844;28;20033;-80
2020/12/29 07:19:36;;;;;;;1.33;1.30;;;3.60;99.90;;;;;;5028566;28;20091;-79
2020/12/29 07:22:08;;;;;;;5.07;3.00;;;3.60;99.90;;;;;;5012872;28;20025;-81
2020/12/29 07:24:36;;;;;;;1.73;1.63;;;3.60;99.90;;;;;;5006709;28;20030;-80
2020/12/29 07:27:03;;;;;;;3.28;2.38;;;3.60;99.90;;;;;;5025576;28;20316;-82
2020/12/29 07:29:29;;;;;;;;;;;3.60;99.90;;;;;;5017540;28;20034;-79
2020/12/29 07:31:59;;;;;;;4.50;1.97;;;3.60;99.90;;;;;;5021107;28;19910;-79
2020/12/29 07:34:32;;;;;;;1.13;1.05;;;3.50;99.90;;;;;;5020197;28;20112;-79
2020/12/29 07:36:59;;;;;;;1.08;1.02;;;3.60;99.90;;;;;;5019323;28;20033;-79
2020/12/29 07:39:26;;;;;;;6.10;1.52;;;3.50;99.90;;;;;;5021888;28;20158;-78
2020/12/29 07:41:52;;;;;;;2.65;2.38;;;3.50;99.90;;;;;;5012518;28;20349;-79
2020/12/29 07:44:18;;;;;;;8.47;2.50;;;3.50;99.90;;;;;;5009232;28;20061;-80
2020/12/29 07:46:43;;;;;;;3.00;2.73;;;3.40;99.90;;;;;;5006763;28;20108;-79
2020/12/29 07:49:09;;;;;;;1.97;1.80;;;3.50;99.90;;;;;;5017349;28;20037;-79
2020/12/29 07:51:47;;;;;;;4.40;1.50;;;3.50;99.90;;;;;;5013411;28;20475;-79
2020/12/29 07:54:13;;;;;;;4.25;1.75;;;3.50;99.90;;;;;;5025556;28;20065;-79
2020/12/29 07:56:39;;;;;;;1.63;1.52;;;3.50;99.90;;;;;;5040168;28;20064;-79
2020/12/29 07:59:11;;;;;;;2.22;1.98;;;3.60;99.90;;;;;;5042446;28;20021;-80
2020/12/29 08:01:57;;;;;;;1.65;1.48;;;3.60;99.90;;;;;;5026261;28;20064;-80
2020/12/29 08:04:31;;;;;;;1.58;1.48;;;3.50;99.90;;;;;;5028012;28;20188;-81
2020/12/29 08:06:59;;;;;;;2.67;2.28;;;3.50;99.90;;;;;;5027342;28;20018;-81
2020/12/29 08:09:25;;;;;;;2.08;1.88;;;3.60;99.90;;;;;;5027786;28;20083;-80
2020/12/29 08:11:51;;;;;;;2.72;2.03;;;3.60;99.90;;;;;;5032461;28;20080;-81
2020/12/29 08:14:17;;;;;;;2.63;1.52;;;3.50;99.90;;;;;;5029703;28;20040;-79
2020/12/29 08:16:43;;;;;;;5.38;3.80;;;3.50;99.90;;;;;;5025275;28;20325;-80
2020/12/29 08:19:09;;;;;;;4.50;3.13;;;3.50;99.90;;;;;;5046131;28;20030;-80
2020/12/29 08:21:37;;;;;;;2.57;2.33;;;3.50;99.90;;;;;;5023518;28;20216;-80
2020/12/29 08:24:03;;;;;;;2.30;2.00;;;3.50;99.90;;;;;;5019155;28;20053;-80
2020/12/29 08:26:29;;;;;;;3.58;2.42;;;3.50;99.90;;;;;;5045016;28;20041;-79
2020/12/29 08:28:56;;;;;;;2.30;1.55;;;3.50;99.90;;;;;;5046425;28;20737;-80
2020/12/29 08:31:23;;;;;;;6.00;3.17;;;3.60;99.90;;;;;;4968989;28;20034;-79
2020/12/29 08:33:53;;;;;;;3.42;2.20;;;3.50;99.90;;;;;;4910385;28;20030;-79
2020/12/29 08:36:27;;;;;;;5.18;3.58;;;3.50;99.90;;;;;;4908238;28;20434;-79
2020/12/29 08:39:22;;;;;;;1.20;1.20;;;3.50;99.90;;;;;;4907215;28;20069;-80
2020/12/29 08:41:59;;;;;;;4.88;2.42;;;3.50;99.90;;;;;;4889545;28;20804;-79
2020/12/29 08:44:28;;;;;;;1.95;1.60;;;3.50;99.90;;;;;;4893868;28;20030;-78
2020/12/29 08:46:55;;;;;;;3.92;3.25;;;3.50;99.90;;;;;;4891171;28;20324;-79
2020/12/29 08:49:29;;;;;;;4.97;2.90;;;3.50;99.90;;;;;;4892919;28;20039;-80
2020/12/29 08:51:55;;;;;;;5.57;3.42;;;3.50;99.90;;;;;;4895176;28;20076;-79
2020/12/29 08:54:22;;;;;;;4.10;3.60;;;3.50;99.90;;;;;;4894629;28;20548;-79
2020/12/29 08:56:48;;;;;;;2.95;2.53;;;3.50;99.90;;;;;;4894659;28;21453;-78
2020/12/29 08:59:15;;;;;;;2.92;2.70;;;3.50;99.90;;;;;;4893875;28;20029;-78
2020/12/29 09:01:45;;;;;;;2.70;2.50;;;3.40;99.90;;;;;;4909053;28;20952;-78
2020/12/29 09:04:31;;;;;;;4.88;3.33;;;3.40;99.90;;;;;;4894770;28;20805;-79
2020/12/29 09:07:07;;;;;;;4.13;1.85;;;3.40;99.90;;;;;;4894014;28;21076;-77
2020/12/29 09:09:56;;;;;;;3.72;2.15;;;3.40;99.90;;;;;;4907804;28;20826;-79
2020/12/29 09:12:28;;;;;;;4.97;1.98;;;3.40;99.90;;;;;;4893628;28;20463;-78
2020/12/29 09:15:04;;;;;;;3.70;3.10;;;3.40;99.90;;;;;;4909414;28;20411;-78
2020/12/29 09:17:31;;;;;;;4.43;2.17;;;3.40;99.90;;;;;;4894213;28;20041;-78
2020/12/29 09:20:06;;;;;;;6.72;2.20;;;3.30;99.90;;;;;;4894248;28;20026;-81
2020/12/29 09:22:32;;;;;;;5.63;2.58;;;3.30;99.90;;;;;;4906424;28;20033;-78
2020/12/29 09:24:58;;;;;;;4.07;2.95;;;3.30;99.90;;;;;;4893122;28;20049;-78
2020/12/29 09:27:31;;;;;;;1.90;1.70;;;3.30;99.90;;;;;;4906914;28;20065;-78
2020/12/29 09:29:58;;;;;;;4.57;2.78;;;3.30;99.90;;;;;;4911517;28;20025;-78
2020/12/29 09:32:25;;;;;;;2.03;1.42;;;3.30;99.90;;;;;;5028455;28;20025;-79
2020/12/29 09:34:51;;;;;;;3.67;2.97;;;3.30;99.90;;;;;;5044903;28;20068;-80
2020/12/29 09:37:18;;;;;;;4.70;2.85;;;3.30;99.90;;;;;;5032605;28;20032;-78
2020/12/29 09:39:44;;;;;;;;;;;3.20;99.90;;;;;;5015321;28;20054;-78
2020/12/29 09:42:10;;;;;;;0.93;0.88;;;3.20;99.90;;;;;;5027514;28;20360;-78
2020/12/29 09:44:36;;;;;;;2.10;1.90;;;3.30;99.90;;;;;;5013700;28;20480;-79
2020/12/29 09:47:02;;;;;;;2.70;2.10;;;3.40;99.90;;;;;;5013326;28;20034;-79
2020/12/29 09:49:28;;;;;;;2.33;1.70;;;3.40;99.90;;;;;;5032302;28;20033;-77
2020/12/29 09:51:53;;;;;;;2.37;2.17;;;3.50;99.90;;;;;;5036826;28;20376;-78
2020/12/29 09:54:19;;;;;;;4.70;3.60;;;3.60;99.90;;;;;;5031708;28;20404;-78
2020/12/29 09:56:46;;;;;;;3.15;2.55;;;3.70;99.90;;;;;;5021250;28;20286;-78
2020/12/29 09:59:11;;;;;;;1.98;1.38;;;3.70;99.90;;;;;;5012733;28;20100;-79
2020/12/29 10:01:37;;;;;;;3.17;2.63;;;3.80;99.90;;;;;;5028766;28;20064;-80
2020/12/29 10:04:03;;;;;;;2.13;2.00;;;3.80;99.90;;;;;;5031144;28;20405;-78
2020/12/29 10:06:29;;;;;;;13.63;4.70;;;3.80;99.90;;;;;;5029993;28;20034;-77
2020/12/29 10:08:54;;;;;;;2.85;2.60;;;3.80;99.90;;;;;;5015107;28;20041;-78
2020/12/29 10:11:20;;;;;;;3.53;1.73;;;3.80;99.90;;;;;;5017488;28;20053;-78
2020/12/29 10:13:46;;;;;;;6.00;1.83;;;3.80;99.90;;;;;;5031212;28;20056;-78
2020/12/29 10:16:12;;;;;;;4.50;2.05;;;3.90;99.90;;;;;;5015217;28;20067;-79
2020/12/29 10:18:38;;;;;;;4.60;3.33;;;3.90;99.90;;;;;;5018535;28;20417;-78
2020/12/29 10:21:04;;;;;;;3.42;3.20;;;3.90;99.90;;;;;;5032402;28;20041;-78
2020/12/29 10:23:30;;;;;;;1.33;1.30;;;3.90;99.90;;;;;;5014235;28;20421;-78
2020/12/29 10:25:56;;;;;;;2.47;2.20;;;4.10;99.90;;;;;;5031250;28;20057;-78
2020/12/29 10:28:21;;;;;;;4.63;3.00;;;4.10;99.90;;;;;;5007128;28;20018;-78
2020/12/29 10:30:48;;;;;;;2.83;1.23;;;4.20;99.90;;;;;;5016974;28;20053;-79
2020/12/29 10:33:14;;;;;;;4.88;2.58;;;4.20;99.90;;;;;;5017766;28;20436;-78
2020/12/29 10:35:40;;;;;;;2.30;2.20;;;4.20;99.90;;;;;;5043754;28;20030;-79
2020/12/29 10:38:06;;;;;;;2.87;1.83;;;4.30;99.90;;;;;;5025619;28;20073;-78
2020/12/29 10:40:32;;;;;;;3.53;1.83;;;4.30;99.90;;;;;;5009711;28;20098;-78
2020/12/29 10:42:58;;;;;;;1.38;1.30;;;4.30;99.90;;;;;;5036425;28;20023;-79
2020/12/29 10:45:23;;;;;;;5.60;2.80;;;4.30;99.90;;;;;;5031618;28;20022;-80
2020/12/29 10:47:49;;;;;;;3.73;3.03;;;4.40;99.90;;;;;;5015887;28;20030;-79
2020/12/29 10:50:15;;;;;;;2.78;2.42;;;4.40;99.90;;;;;;5015532;28;20025;-79
2020/12/29 10:52:40;;;;;;;2.83;0.82;;;4.40;99.90;;;;;;5016467;28;20040;-78
2020/12/29 10:55:06;;;;;;;5.90;3.07;;;4.50;99.90;;;;;;5003097;28;20022;-78
2020/12/29 10:57:33;;;;;;;2.83;2.45;;;4.60;99.90;;;;;;5016507;28;20057;-78
2020/12/29 10:59:58;;;;;;;3.35;2.70;;;4.70;99.90;;;;;;5043224;28;20029;-78
2020/12/29 11:02:24;;;;;;;2.85;1.77;;;4.80;99.90;;;;;;5037085;28;20438;-79
2020/12/29 11:04:50;;;;;;;2.53;2.33;;;4.90;99.90;;;;;;5042737;28;20029;-78
2020/12/29 11:07:16;;;;;;;5.43;2.83;;;5.00;99.90;;;;;;5007966;28;20062;-77
2020/12/29 11:09:41;;;;;;;2.55;1.40;;;4.90;99.90;;;;;;5029544;28;20405;-78
2020/12/29 11:12:07;;;;;;;3.90;2.65;;;4.90;99.90;;;;;;5031590;28;20416;-79
2020/12/29 11:14:33;;;;;;;3.57;1.73;;;4.90;99.90;;;;;;5014081;28;20053;-78
2020/12/29 11:16:59;;;;;;;4.33;3.17;;;4.90;99.90;;;;;;5018755;28;20112;-78
2020/12/29 11:19:25;;;;;;;2.33;1.60;;;5.00;99.90;;;;;;5015082;28;20029;-78
2020/12/29 11:21:50;;;;;;;4.20;1.87;;;4.90;99.90;;;;;;5015448;28;20026;-78
2020/12/29 11:24:16;;;;;;;2.27;2.10;;;4.90;99.90;;;;;;5028481;28;20298;-78
2020/12/29 11:26:43;;;;;;;3.67;2.22;;;5.00;99.90;;;;;;5004201;28;20029;-77
2020/12/29 11:29:09;;;;;;;;;;;4.90;99.90;;;;;;5015429;28;20061;-80
2020/12/29 11:31:35;;;;;;;1.77;1.67;;;5.00;99.90;;;;;;4972422;28;20316;-78
2020/12/29 11:34:00;;;;;;;1.73;1.63;;;5.10;99.90;;;;;;5032039;28;20424;-79
2020/12/29 11:36:26;;;;;;;6.20;1.52;;;5.20;99.90;;;;;;5016018;28;20108;-78
2020/12/29 11:38:52;;;;;;;5.68;2.03;;;5.40;99.90;;;;;;5014402;28;20136;-78
2020/12/29 11:41:18;;;;;;;2.37;1.90;;;5.50;99.90;;;;;;5012973;28;20053;-78
2020/12/29 11:43:43;;;;;;;2.05;1.90;;;5.50;99.90;;;;;;5012157;28;20034;-79
2020/12/29 11:46:09;;;;;;;3.40;1.17;;;5.60;99.90;;;;;;5015500;28;20028;-77
2020/12/29 11:48:36;;;;;;;1.53;1.43;;;5.60;99.90;;;;;;5040010;28;20108;-78
2020/12/29 11:51:03;;;;;;;4.82;1.65;;;5.60;99.90;;;;;;5008437;28;20030;-80
2020/12/29 11:53:29;;;;;;;;;;;5.60;99.90;;;;;;5018643;28;20486;-79
2020/12/29 11:55:54;;;;;;;0.97;0.77;;;5.60;99.90;;;;;;5029319;28;19913;-80
2020/12/29 11:58:20;;;;;;;0.95;0.95;;;5.60;99.90;;;;;;5024974;28;20055;-78
2020/12/29 12:00:46;;;;;;;0.83;0.63;;;5.60;99.90;;;;;;5015213;28;20443;-79
2020/12/29 12:03:12;;;;;;;0.60;0.60;;;5.60;99.90;;;;;;5032703;28;20018;-77
2020/12/29 12:05:37;;;;;;;1.23;1.10;;;5.60;99.90;;;;;;5023076;28;20025;-78
2020/12/29 12:08:03;;;;;;;3.40;1.80;;;5.60;99.90;;;;;;5029599;28;20030;-78
2020/12/29 12:10:29;;;;;;;3.20;2.28;;;5.70;99.90;;;;;;5001445;28;20421;-78
2020/12/29 12:12:55;;;;;;;1.03;1.03;;;5.60;99.90;;;;;;5015948;28;20030;-78
2020/12/29 12:15:20;;;;;;;9.50;2.47;;;5.60;99.90;;;;;;5010790;28;20033;-78
2020/12/29 12:17:46;;;;;;;1.63;1.52;;;5.70;99.90;;;;;;5007194;28;20325;-78
2020/12/29 12:20:12;;;;;;;6.78;2.30;;;5.60;99.90;;;;;;5016653;28;20022;-78
2020/12/29 12:22:38;;;;;;;5.70;2.43;;;5.60;99.90;;;;;;5021332;28;20033;-77
2020/12/29 12:25:04;;;;;;;6.27;2.80;;;5.70;99.90;;;;;;5030009;28;20029;-79
2020/12/29 12:27:30;;;;;;;3.65;3.25;;;5.70;99.90;;;;;;5026980;28;20030;-78
2020/12/29 12:29:56;;;;;;;1.98;1.35;;;5.70;99.90;;;;;;5017010;28;20318;-78
2020/12/29 12:32:22;;;;;;;5.53;3.42;;;5.60;99.90;;;;;;5033531;28;20093;-78
2020/12/29 12:34:47;;;;;;;6.20;2.13;;;5.70;99.90;;;;;;5009610;28;20045;-80
2020/12/29 12:37:13;;;;;;;7.85;3.47;;;5.70;99.90;;;;;;5006956;28;20022;-78
2020/12/29 12:39:40;;;;;;;7.47;3.77;;;5.70;99.90;;;;;;5024781;28;20046;-78
2020/12/29 12:42:07;;;;;;;;;;;5.70;99.90;;;;;;5021217;28;20034;-78
2020/12/29 12:44:34;;;;;;;8.18;3.75;;;5.60;99.90;;;;;;5018440;28;19967;-79
2020/12/29 12:46:59;;;;;;;3.47;2.72;;;5.50;99.90;;;;;;5040263;28;20030;-77
2020/12/29 12:49:25;;;;;;;4.78;2.80;;;5.40;99.90;;;;;;5012897;28;20038;-77
2020/12/29 12:51:51;;;;;;;11.17;3.63;;;5.40;99.90;;;;;;5012542;28;20033;-78
2020/12/29 12:54:17;;;;;;;8.27;3.37;;;5.30;99.90;;;;;;5040607;28;20030;-78
2020/12/29 12:56:43;;;;;;;8.45;4.20;;;5.30;99.90;;;;;;5033943;28;20088;-78
2020/12/29 12:59:12;;;;;;;3.50;3.13;;;5.30;99.90;;;;;;5028281;28;20030;-79
2020/12/29 13:01:39;;;;;;;4.03;2.63;;;5.30;99.90;;;;;;5035253;28;20116;-78